Time;durP1;ratioP1;P1;durP2;ratioP2;P2;SDS_P1;SDS_P2;PMS_P1;PMS_P2;Temp;Humidity;BMP_temperature;BMP_pressure;BME280_temperature;BME280_humidity;BME280_pressure;Samples;Min_cycle;Max_cycle;Signal;HPM_P1;HPM_P2
2023/06/14 00:02:14;;;;;;;34.15;24.70;;;;;;;;;;5071822;28;20048;-61
2023/06/14 00:04:41;;;;;;;35.17;26.10;;;;;;;;;;5071555;28;20056;-62
2023/06/14 00:07:08;;;;;;;19.50;15.65;;;;;;;;;;5071488;28;20132;-61
2023/06/14 00:09:37;;;;;;;18.85;16.58;;;;;;;;;;5071646;28;20052;-62
2023/06/14 00:12:03;;;;;;;16.80;12.85;;;;;;;;;;5071372;28;20045;-61
2023/06/14 00:14:32;;;;;;;32.80;24.58;;;;;;;;;;5071214;28;20124;-61
2023/06/14 00:16:58;;;;;;;30.08;22.40;;;;;;;;;;5071635;28;20455;-61
2023/06/14 00:19:25;;;;;;;22.53;16.73;;;;;;;;;;5071456;28;20135;-61
2023/06/14 00:21:52;;;;;;;22.70;18.52;;;;;;;;;;5071367;28;20052;-61
2023/06/14 00:24:19;;;;;;;220.30;187.75;;;;;;;;;;5071159;28;20075;-62
2023/06/14 00:26:47;;;;;;;593.67;431.80;;;;;;;;;;5071121;28;20045;-61
2023/06/14 00:29:13;;;;;;;657.72;499.25;;;;;;;;;;5071157;28;20452;-61
2023/06/14 00:31:40;;;;;;;849.03;597.67;;;;;;;;;;5071053;28;20059;-61
2023/06/14 00:34:06;;;;;;;827.60;579.58;;;;;;;;;;5071461;28;20049;-61
2023/06/14 00:36:32;;;;;;;960.75;634.95;;;;;;;;;;5068641;28;20037;-61
2023/06/14 00:38:59;;;;;;;824.60;569.50;;;;;;;;;;5070988;28;20143;-61
2023/06/14 00:41:26;;;;;;;721.22;518.00;;;;;;;;;;5071478;28;20055;-61
2023/06/14 00:43:55;;;;;;;;;;;;;;;;;;5071415;28;20504;-61
2023/06/14 00:46:22;;;;;;;915.08;613.53;;;;;;;;;;5070793;28;19931;-61
2023/06/14 00:48:48;;;;;;;882.15;593.00;;;;;;;;;;5070892;28;20058;-62
2023/06/14 00:51:15;;;;;;;796.20;559.33;;;;;;;;;;5071104;28;20049;-61
2023/06/14 00:53:46;;;;;;;449.70;304.80;;;;;;;;;;5072764;28;20219;-62
2023/06/14 00:56:13;;;;;;;569.10;390.83;;;;;;;;;;5074571;28;20055;-61
2023/06/14 00:58:39;;;;;;;511.10;354.52;;;;;;;;;;5074634;28;20499;-61
2023/06/14 01:01:06;;;;;;;478.52;329.35;;;;;;;;;;5074739;28;20385;-62
2023/06/14 01:03:33;;;;;;;778.85;555.42;;;;;;;;;;5074482;28;20059;-60
2023/06/14 01:06:05;;;;;;;696.83;510.25;;;;;;;;;;5056915;28;20122;-61
2023/06/14 01:08:42;;;;;;;855.67;615.25;;;;;;;;;;5074177;28;20052;-61
2023/06/14 01:11:14;;;;;;;777.75;581.58;;;;;;;;;;5074333;28;20106;-61
2023/06/14 01:13:43;;;;;;;542.53;439.48;;;;;;;;;;5074497;28;20045;-61
2023/06/14 01:16:10;;;;;;;525.03;424.30;;;;;;;;;;5074222;28;20491;-61
2023/06/14 01:18:36;;;;;;;281.10;228.23;;;;;;;;;;5074119;28;20048;-61
2023/06/14 01:21:05;;;;;;;585.75;479.45;;;;;;;;;;5074285;28;20076;-61
2023/06/14 01:23:32;;;;;;;572.22;471.23;;;;;;;;;;5074275;28;20484;-62
2023/06/14 01:26:03;;;;;;;544.22;434.50;;;;;;;;;;5074182;28;20048;-61
2023/06/14 01:28:31;;;;;;;391.48;299.55;;;;;;;;;;5074183;28;20412;-61
2023/06/14 01:31:00;;;;;;;290.83;231.65;;;;;;;;;;5073947;28;20044;-61
2023/06/14 01:33:27;;;;;;;343.33;264.70;;;;;;;;;;5073839;28;20044;-61
2023/06/14 01:35:54;;;;;;;336.30;259.25;;;;;;;;;;5074056;28;20056;-61
2023/06/14 01:38:21;;;;;;;;;;;;;;;;;;5074405;28;20060;-61
2023/06/14 01:40:48;;;;;;;929.47;550.70;;;;;;;;;;5073879;28;20277;-62
2023/06/14 01:43:15;;;;;;;1003.83;588.33;;;;;;;;;;5073595;28;20496;-61
2023/06/14 01:45:42;;;;;;;943.60;574.63;;;;;;;;;;5073720;28;20060;-62
2023/06/14 01:48:09;;;;;;;893.63;550.92;;;;;;;;;;5073671;28;20105;-61
2023/06/14 01:50:36;;;;;;;750.70;492.70;;;;;;;;;;5073856;28;20049;-62
2023/06/14 01:53:02;;;;;;;700.35;449.60;;;;;;;;;;5073468;28;20385;-62
2023/06/14 01:55:29;;;;;;;591.45;421.70;;;;;;;;;;5073776;28;20060;-61
2023/06/14 01:57:55;;;;;;;571.88;422.67;;;;;;;;;;5073478;28;20049;-60
2023/06/14 02:00:22;;;;;;;524.25;384.92;;;;;;;;;;5073447;28;20048;-61
2023/06/14 02:02:49;;;;;;;486.02;357.65;;;;;;;;;;5073710;28;20056;-62
2023/06/14 02:05:18;;;;;;;466.70;342.80;;;;;;;;;;5073017;28;20052;-61
2023/06/14 02:07:46;;;;;;;499.63;370.88;;;;;;;;;;5073385;28;20084;-61
2023/06/14 02:10:13;;;;;;;538.78;399.50;;;;;;;;;;5073310;28;20115;-61
2023/06/14 02:12:40;;;;;;;;;;;;;;;;;;5074004;28;20044;-61
2023/06/14 02:15:07;;;;;;;618.17;456.02;;;;;;;;;;5073114;28;19931;-61
2023/06/14 02:17:34;;;;;;;654.90;478.00;;;;;;;;;;5073252;28;20051;-61
2023/06/14 02:20:00;;;;;;;664.10;500.20;;;;;;;;;;5073108;28;20055;-61
2023/06/14 02:22:27;;;;;;;593.80;453.77;;;;;;;;;;5072987;28;20098;-61
2023/06/14 02:24:53;;;;;;;594.92;460.67;;;;;;;;;;5073494;28;20048;-61
2023/06/14 02:27:27;;;;;;;577.03;454.10;;;;;;;;;;5073037;28;20415;-61
2023/06/14 02:29:54;;;;;;;504.60;409.55;;;;;;;;;;5072661;28;20539;-61
2023/06/14 02:32:20;;;;;;;490.92;395.88;;;;;;;;;;5072978;28;20048;-61
2023/06/14 02:34:49;;;;;;;462.35;362.10;;;;;;;;;;5070243;28;20052;-62
2023/06/14 02:37:16;;;;;;;411.23;323.95;;;;;;;;;;5068649;28;20040;-61
2023/06/14 02:39:43;;;;;;;326.53;255.70;;;;;;;;;;5073264;28;20044;-62
2023/06/14 02:42:10;;;;;;;198.77;160.68;;;;;;;;;;5072564;28;20076;-61
2023/06/14 02:44:36;;;;;;;183.40;139.27;;;;;;;;;;5072293;28;20086;-62
2023/06/14 02:47:03;;;;;;;190.65;142.70;;;;;;;;;;5072461;28;20087;-61
2023/06/14 02:49:30;;;;;;;291.92;226.73;;;;;;;;;;5072509;28;20056;-61
2023/06/14 02:51:57;;;;;;;358.15;290.92;;;;;;;;;;5072527;28;20053;-61
2023/06/14 02:54:23;;;;;;;281.48;234.13;;;;;;;;;;5072459;28;20479;-61
2023/06/14 02:56:50;;;;;;;344.77;292.45;;;;;;;;;;5072535;28;20135;-61
2023/06/14 02:59:17;;;;;;;297.40;260.83;;;;;;;;;;5072176;28;20044;-61
2023/06/14 03:01:43;;;;;;;64.97;53.17;;;;;;;;;;5072645;28;20044;-61
2023/06/14 03:04:09;;;;;;;22.33;18.42;;;;;;;;;;5072075;28;20071;-61
2023/06/14 03:06:36;;;;;;;14.60;13.20;;;;;;;;;;5072046;28;20045;-61
2023/06/14 03:09:07;;;;;;;13.30;10.80;;;;;;;;;;5072175;28;20097;-61
2023/06/14 03:11:33;;;;;;;11.93;10.73;;;;;;;;;;5071898;28;20044;-61
2023/06/14 03:14:00;;;;;;;12.63;11.40;;;;;;;;;;5071965;28;20048;-62
2023/06/14 03:16:29;;;;;;;53.42;48.10;;;;;;;;;;5071376;28;20055;-61
2023/06/14 03:18:56;;;;;;;174.75;157.15;;;;;;;;;;5071815;28;20048;-61
2023/06/14 03:21:22;;;;;;;153.77;138.35;;;;;;;;;;5072142;28;20475;-61
2023/06/14 03:23:49;;;;;;;108.57;97.65;;;;;;;;;;5072128;28;20055;-61
2023/06/14 03:26:17;;;;;;;114.75;103.53;;;;;;;;;;5071675;28;20135;-61
2023/06/14 03:28:48;;;;;;;187.30;168.80;;;;;;;;;;5071898;28;20436;-61
2023/06/14 03:31:16;;;;;;;171.73;154.45;;;;;;;;;;5071995;28;20048;-62
2023/06/14 03:33:43;;;;;;;112.38;101.05;;;;;;;;;;5071742;28;20048;-60
2023/06/14 03:36:09;;;;;;;100.68;90.57;;;;;;;;;;5072019;28;20041;-61
2023/06/14 03:38:36;;;;;;;91.28;82.28;;;;;;;;;;5071497;28;20044;-61
2023/06/14 03:41:02;;;;;;;82.00;73.70;;;;;;;;;;5071895;28;20064;-61
2023/06/14 03:43:30;;;;;;;61.40;55.33;;;;;;;;;;5071421;28;20068;-61
2023/06/14 03:45:56;;;;;;;38.90;34.83;;;;;;;;;;5071628;28;20060;-61
2023/06/14 03:48:23;;;;;;;32.70;28.27;;;;;;;;;;5071682;28;20060;-61
2023/06/14 03:50:50;;;;;;;29.83;26.63;;;;;;;;;;5071470;28;20052;-61
2023/06/14 03:53:16;;;;;;;24.02;21.25;;;;;;;;;;5071426;28;20048;-62
2023/06/14 03:55:43;;;;;;;23.85;19.48;;;;;;;;;;5071700;28;20050;-61
2023/06/14 03:58:13;;;;;;;20.55;18.33;;;;;;;;;;5071498;28;20101;-62
2023/06/14 04:00:40;;;;;;;19.00;16.95;;;;;;;;;;5071658;28;20098;-61
2023/06/14 04:03:06;;;;;;;16.88;14.80;;;;;;;;;;5071545;28;20059;-61
2023/06/14 04:05:33;;;;;;;13.75;12.32;;;;;;;;;;5071549;28;20106;-61
2023/06/14 04:08:00;;;;;;;14.52;11.88;;;;;;;;;;5071581;28;20079;-61
2023/06/14 04:10:27;;;;;;;13.95;10.68;;;;;;;;;;5071234;28;20056;-61
2023/06/14 04:12:54;;;;;;;11.13;9.70;;;;;;;;;;5071562;28;20041;-61
2023/06/14 04:15:20;;;;;;;10.98;9.93;;;;;;;;;;5071502;28;20047;-61
2023/06/14 04:17:48;;;;;;;11.15;9.50;;;;;;;;;;5071139;28;20555;-60
2023/06/14 04:20:14;;;;;;;12.80;10.45;;;;;;;;;;5071178;28;20049;-61
2023/06/14 04:22:43;;;;;;;12.48;11.18;;;;;;;;;;5071192;28;20098;-61
2023/06/14 04:25:09;;;;;;;11.25;9.57;;;;;;;;;;5071421;28;20114;-61
2023/06/14 04:27:38;;;;;;;12.15;9.60;;;;;;;;;;5072556;28;20052;-61
2023/06/14 04:30:05;;;;;;;11.55;9.55;;;;;;;;;;5075311;28;20045;-61
2023/06/14 04:32:38;;;;;;;9.98;8.52;;;;;;;;;;5075122;28;20507;-61
2023/06/14 04:35:06;;;;;;;13.32;8.77;;;;;;;;;;5075037;28;20051;-61
2023/06/14 04:37:33;;;;;;;16.75;9.15;;;;;;;;;;5075197;28;20438;-61
2023/06/14 04:39:59;;;;;;;9.85;8.85;;;;;;;;;;5075180;28;20056;-61
2023/06/14 04:42:30;;;;;;;12.48;8.40;;;;;;;;;;5074828;28;20496;-61
2023/06/14 04:44:57;;;;;;;13.00;7.43;;;;;;;;;;5074957;28;20182;-61
2023/06/14 04:47:29;;;;;;;9.18;7.00;;;;;;;;;;5074679;28;20052;-61
2023/06/14 04:50:00;;;;;;;7.85;6.43;;;;;;;;;;5075002;28;20074;-61
2023/06/14 04:52:29;;;;;;;8.50;5.80;;;;;;;;;;5074932;28;20040;-61
2023/06/14 04:54:56;;;;;;;5.22;4.72;;;;;;;;;;5074840;28;20052;-61
2023/06/14 04:57:25;;;;;;;8.27;5.57;;;;;;;;;;5074507;28;20560;-61
2023/06/14 04:59:54;;;;;;;6.03;5.07;;;;;;;;;;5074479;28;20106;-61
2023/06/14 05:02:25;;;;;;;6.57;4.72;;;;;;;;;;5074425;28;20060;-61
2023/06/14 05:04:52;;;;;;;5.45;4.15;;;;;;;;;;5074741;28;20153;-62
2023/06/14 05:07:18;;;;;;;5.13;4.28;;;;;;;;;;5074851;28;20052;-61
2023/06/14 05:09:45;;;;;;;5.63;4.20;;;;;;;;;;5074472;28;20447;-61
2023/06/14 05:12:12;;;;;;;5.20;4.30;;;;;;;;;;5074414;28;20109;-61
2023/06/14 05:14:39;;;;;;;6.78;4.15;;;;;;;;;;5074416;28;20281;-62
2023/06/14 05:17:06;;;;;;;7.15;3.75;;;;;;;;;;5074520;28;20041;-61
2023/06/14 05:19:32;;;;;;;6.17;4.23;;;;;;;;;;5074105;28;20553;-61
2023/06/14 05:21:59;;;;;;;6.55;3.72;;;;;;;;;;5074380;28;20056;-61
2023/06/14 05:24:25;;;;;;;7.47;3.90;;;;;;;;;;5074010;28;20045;-61
2023/06/14 05:26:52;;;;;;;7.35;3.65;;;;;;;;;;5074545;28;20097;-61
2023/06/14 05:29:19;;;;;;;6.03;4.35;;;;;;;;;;5074321;28;20048;-61
2023/06/14 05:31:45;;;;;;;7.57;4.27;;;;;;;;;;5074105;28;20480;-61
2023/06/14 05:34:12;;;;;;;7.13;4.13;;;;;;;;;;5074008;28;20044;-61
2023/06/14 05:36:38;;;;;;;6.75;4.10;;;;;;;;;;5073890;28;20045;-61
2023/06/14 05:39:06;;;;;;;9.00;4.40;;;;;;;;;;5073243;28;20049;-61
2023/06/14 05:41:32;;;;;;;;;;;;;;;;;;5074202;28;20285;-61
2023/06/14 05:44:00;;;;;;;10.15;4.95;;;;;;;;;;5074017;28;19920;-61
2023/06/14 05:46:27;;;;;;;6.97;4.60;;;;;;;;;;5073688;28;20114;-60
2023/06/14 05:48:54;;;;;;;8.82;4.22;;;;;;;;;;5073796;28;20097;-61
2023/06/14 05:51:20;;;;;;;6.70;4.10;;;;;;;;;;5073888;28;20048;-61
2023/06/14 05:53:47;;;;;;;6.93;4.53;;;;;;;;;;5073812;28;20052;-61
2023/06/14 05:56:14;;;;;;;8.93;4.10;;;;;;;;;;5073785;28;20118;-61
2023/06/14 05:58:41;;;;;;;7.73;4.20;;;;;;;;;;5073755;28;20056;-60
2023/06/14 06:01:07;;;;;;;9.02;3.90;;;;;;;;;;5073789;28;20423;-61
2023/06/14 06:03:34;;;;;;;7.63;3.50;;;;;;;;;;5073558;28;20048;-61
2023/06/14 06:06:01;;;;;;;6.30;4.27;;;;;;;;;;5065305;28;20052;-61
2023/06/14 06:08:27;;;;;;;5.47;4.30;;;;;;;;;;5073212;28;20052;-61
2023/06/14 06:10:54;;;;;;;7.20;4.53;;;;;;;;;;5070934;28;20053;-60
2023/06/14 06:13:20;;;;;;;6.03;3.85;;;;;;;;;;5055656;28;20049;-61
2023/06/14 06:15:47;;;;;;;6.63;3.92;;;;;;;;;;5061437;28;20044;-62
2023/06/14 06:18:13;;;;;;;7.38;4.28;;;;;;;;;;5070088;28;20053;-61
2023/06/14 06:20:40;;;;;;;5.35;3.42;;;;;;;;;;5069058;28;20055;-61
2023/06/14 06:23:07;;;;;;;6.90;3.50;;;;;;;;;;5061956;28;20519;-61
2023/06/14 06:25:34;;;;;;;;;;;;;;;;;;5073521;28;20137;-61
2023/06/14 06:28:01;;;;;;;6.33;3.70;;;;;;;;;;5056322;28;19978;-62
2023/06/14 06:30:27;;;;;;;4.68;3.85;;;;;;;;;;5053410;28;20102;-61
2023/06/14 06:32:55;;;;;;;4.28;3.30;;;;;;;;;;5052937;28;20048;-61
2023/06/14 06:35:22;;;;;;;4.63;3.67;;;;;;;;;;5052832;28;20037;-61
2023/06/14 06:37:48;;;;;;;8.38;4.05;;;;;;;;;;5052748;28;20106;-61
2023/06/14 06:40:15;;;;;;;7.63;4.20;;;;;;;;;;5052180;28;20140;-61
2023/06/14 06:42:42;;;;;;;6.17;3.60;;;;;;;;;;5052612;28;20135;-61
2023/06/14 06:45:08;;;;;;;5.95;3.50;;;;;;;;;;5067353;28;20056;-61
2023/06/14 06:47:35;;;;;;;5.40;3.13;;;;;;;;;;5072843;28;20056;-60
2023/06/14 06:50:01;;;;;;;7.82;3.47;;;;;;;;;;5072381;28;20090;-60
2023/06/14 06:52:29;;;;;;;5.50;3.75;;;;;;;;;;5072356;28;20048;-63
2023/06/14 06:54:55;;;;;;;5.75;3.60;;;;;;;;;;5065895;28;20049;-61
2023/06/14 06:57:23;;;;;;;6.28;3.60;;;;;;;;;;5053936;28;20044;-61
2023/06/14 06:59:50;;;;;;;6.72;3.58;;;;;;;;;;5069970;28;20131;-61
2023/06/14 07:02:16;;;;;;;7.27;4.10;;;;;;;;;;5070541;28;20539;-62
2023/06/14 07:04:43;;;;;;;8.75;3.78;;;;;;;;;;5070968;28;20048;-61
2023/06/14 07:07:10;;;;;;;5.05;3.30;;;;;;;;;;5070786;28;20504;-62
2023/06/14 07:09:36;;;;;;;6.63;3.65;;;;;;;;;;5070678;28;20491;-61
2023/06/14 07:12:03;;;;;;;6.63;3.45;;;;;;;;;;5071092;28;20044;-61
2023/06/14 07:14:30;;;;;;;5.90;3.27;;;;;;;;;;5071896;28;20037;-61
2023/06/14 07:16:56;;;;;;;6.43;3.13;;;;;;;;;;5071740;28;20114;-61
2023/06/14 07:19:22;;;;;;;5.45;2.88;;;;;;;;;;5072082;28;20273;-61
2023/06/14 07:21:49;;;;;;;4.32;3.20;;;;;;;;;;5071894;28;20049;-61
2023/06/14 07:24:16;;;;;;;9.50;3.20;;;;;;;;;;5071767;28;20060;-61
2023/06/14 07:26:42;;;;;;;8.37;3.27;;;;;;;;;;5071810;28;20098;-61
2023/06/14 07:29:09;;;;;;;5.22;2.92;;;;;;;;;;5071938;28;20059;-61
2023/06/14 07:31:35;;;;;;;6.03;2.92;;;;;;;;;;5071763;28;20037;-61
2023/06/14 07:34:01;;;;;;;6.45;2.90;;;;;;;;;;5072004;28;20049;-61
2023/06/14 07:36:28;;;;;;;5.70;3.30;;;;;;;;;;5072074;28;20045;-61
2023/06/14 07:38:55;;;;;;;4.80;3.00;;;;;;;;;;5071882;28;20063;-61
2023/06/14 07:41:21;;;;;;;5.87;3.50;;;;;;;;;;5071578;28;20049;-61
2023/06/14 07:43:48;;;;;;;5.53;2.78;;;;;;;;;;5071890;28;20048;-61
2023/06/14 07:46:14;;;;;;;8.13;3.33;;;;;;;;;;5071475;28;20116;-62
2023/06/14 07:48:41;;;;;;;4.93;2.93;;;;;;;;;;5071732;28;20063;-62
2023/06/14 07:51:07;;;;;;;4.50;2.77;;;;;;;;;;5071643;28;20304;-61
2023/06/14 07:53:34;;;;;;;6.95;3.00;;;;;;;;;;5071702;28;20277;-62
2023/06/14 07:56:01;;;;;;;3.70;2.93;;;;;;;;;;5071795;28;20056;-61
2023/06/14 07:58:27;;;;;;;3.75;2.63;;;;;;;;;;5071704;28;20049;-61
2023/06/14 08:00:54;;;;;;;6.23;2.90;;;;;;;;;;5071651;28;20044;-61
2023/06/14 08:03:20;;;;;;;3.60;2.27;;;;;;;;;;5071113;28;20048;-61
2023/06/14 08:05:47;;;;;;;5.00;3.00;;;;;;;;;;5071316;28;20048;-62
2023/06/14 08:08:13;;;;;;;7.80;3.60;;;;;;;;;;5071461;28;20058;-62
2023/06/14 08:10:40;;;;;;;4.07;2.75;;;;;;;;;;5071598;28;20075;-62
2023/06/14 08:13:06;;;;;;;5.30;2.40;;;;;;;;;;5071692;28;20098;-62
2023/06/14 08:15:33;;;;;;;4.40;2.90;;;;;;;;;;5071535;28;20285;-61
2023/06/14 08:18:01;;;;;;;3.97;2.85;;;;;;;;;;5071424;28;20432;-62
2023/06/14 08:20:27;;;;;;;4.30;2.20;;;;;;;;;;5071492;28;20048;-62
2023/06/14 08:22:56;;;;;;;2.95;2.47;;;;;;;;;;5071237;28;20051;-62
2023/06/14 08:25:23;;;;;;;3.67;2.75;;;;;;;;;;5071167;28;20503;-61
2023/06/14 08:27:50;;;;;;;4.53;2.47;;;;;;;;;;5071416;28;20135;-62
2023/06/14 08:30:17;;;;;;;4.05;2.03;;;;;;;;;;5071056;28;20409;-61
2023/06/14 08:32:44;;;;;;;5.45;2.50;;;;;;;;;;5071032;28;20082;-62
2023/06/14 08:35:12;;;;;;;4.35;1.88;;;;;;;;;;5071170;28;20527;-62
2023/06/14 08:37:40;;;;;;;4.10;2.10;;;;;;;;;;5071423;28;20059;-61
2023/06/14 08:40:14;;;;;;;4.65;1.98;;;;;;;;;;5071120;28;20048;-61
2023/06/14 08:42:41;;;;;;;3.60;2.08;;;;;;;;;;5071094;28;20049;-62
2023/06/14 08:45:08;;;;;;;;;;;;;;;;;;5071130;28;20060;-62
2023/06/14 08:47:36;;;;;;;5.80;2.30;;;;;;;;;;5071258;28;19927;-61
2023/06/14 08:50:08;;;;;;;5.32;2.20;;;;;;;;;;5071165;28;20054;-61
2023/06/14 08:52:57;;;;;;;4.40;2.40;;;;;;;;;;5071293;28;20396;-62
2023/06/14 08:55:30;;;;;;;5.57;2.42;;;;;;;;;;5070752;28;20526;-62
2023/06/14 08:58:03;;;;;;;3.75;1.90;;;;;;;;;;5070981;28;20233;-61
2023/06/14 09:00:30;;;;;;;4.55;2.40;;;;;;;;;;5070931;28;20423;-62
2023/06/14 09:02:57;;;;;;;4.05;2.00;;;;;;;;;;5070854;28;20063;-62
2023/06/14 09:05:25;;;;;;;4.13;2.38;;;;;;;;;;5070820;28;20056;-62
2023/06/14 09:07:52;;;;;;;;;;;;;;;;;;5071100;28;20052;-62
2023/06/14 09:10:20;;;;;;;5.28;2.22;;;;;;;;;;5070882;28;19977;-62
2023/06/14 09:12:47;;;;;;;4.85;2.10;;;;;;;;;;5070634;28;20051;-62
2023/06/14 09:15:14;;;;;;;;;;;;;;;;;;5055781;28;20045;-63
2023/06/14 09:17:40;;;;;;;3.25;2.10;;;;;;;;;;5074084;28;19924;-62
2023/06/14 09:20:13;;;;;;;2.83;1.98;;;;;;;;;;5074200;28;20048;-62
2023/06/14 09:22:41;;;;;;;3.40;2.35;;;;;;;;;;5074579;28;20190;-62
2023/06/14 09:25:07;;;;;;;2.65;2.33;;;;;;;;;;5074309;28;20048;-62
2023/06/14 09:27:35;;;;;;;3.70;2.00;;;;;;;;;;5074107;28;20079;-62
2023/06/14 09:30:06;;;;;;;4.03;2.13;;;;;;;;;;5074416;28;20058;-63
2023/06/14 09:32:36;;;;;;;2.33;1.90;;;;;;;;;;5074011;28;20059;-62
2023/06/14 09:35:02;;;;;;;3.33;2.60;;;;;;;;;;5073798;28;20051;-62
2023/06/14 09:37:30;;;;;;;3.88;2.53;;;;;;;;;;5074201;28;20049;-63
2023/06/14 09:39:57;;;;;;;2.70;1.88;;;;;;;;;;5073944;28;20048;-63
2023/06/14 09:42:25;;;;;;;3.45;1.95;;;;;;;;;;5073886;28;20084;-62
2023/06/14 09:44:53;;;;;;;2.58;1.98;;;;;;;;;;5073699;28;20057;-62
2023/06/14 09:47:20;;;;;;;3.47;1.80;;;;;;;;;;5073971;28;20067;-62
2023/06/14 09:49:48;;;;;;;2.58;1.90;;;;;;;;;;5073893;28;20083;-63
2023/06/14 09:52:16;;;;;;;2.50;1.95;;;;;;;;;;5073794;28;20070;-62
2023/06/14 09:54:43;;;;;;;2.58;1.80;;;;;;;;;;5073734;28;20075;-62
2023/06/14 09:57:11;;;;;;;2.80;1.92;;;;;;;;;;5073538;28;20044;-62
2023/06/14 09:59:42;;;;;;;2.95;1.90;;;;;;;;;;5073496;28;20040;-62
2023/06/14 10:02:18;;;;;;;4.65;1.98;;;;;;;;;;5073375;28;20052;-62
2023/06/14 10:04:46;;;;;;;2.90;2.00;;;;;;;;;;5073848;28;20048;-63
2023/06/14 10:07:18;;;;;;;2.97;2.20;;;;;;;;;;5073367;28;20148;-62
2023/06/14 10:09:49;;;;;;;1.90;1.70;;;;;;;;;;5073637;28;20530;-62
2023/06/14 10:12:20;;;;;;;2.72;2.00;;;;;;;;;;5073155;28;20063;-63
2023/06/14 10:14:49;;;;;;;2.25;1.65;;;;;;;;;;5073748;28;20052;-63
2023/06/14 10:17:26;;;;;;;2.25;1.80;;;;;;;;;;5073163;28;20479;-62
2023/06/14 10:19:57;;;;;;;2.15;1.75;;;;;;;;;;5073125;28;20044;-63
2023/06/14 10:22:35;;;;;;;3.65;1.90;;;;;;;;;;5073059;28;20055;-62
2023/06/14 10:25:02;;;;;;;1.92;1.80;;;;;;;;;;5072697;28;20049;-62
2023/06/14 10:27:30;;;;;;;3.03;1.95;;;;;;;;;;5072937;28;20488;-63
2023/06/14 10:29:57;;;;;;;2.83;1.88;;;;;;;;;;5044973;28;20052;-62
2023/06/14 10:32:24;;;;;;;2.17;1.65;;;;;;;;;;5073136;28;20052;-62
2023/06/14 10:35:01;;;;;;;2.35;1.83;;;;;;;;;;5072793;28;20044;-62
2023/06/14 10:37:28;;;;;;;3.42;1.55;;;;;;;;;;5072659;28;20578;-62
2023/06/14 10:39:54;;;;;;;2.83;1.70;;;;;;;;;;5072906;28;20053;-63
2023/06/14 10:42:22;;;;;;;1.83;1.70;;;;;;;;;;5072749;28;20408;-63
2023/06/14 10:44:56;;;;;;;2.38;1.88;;;;;;;;;;5072505;28;20463;-63
2023/06/14 10:47:34;;;;;;;2.70;1.80;;;;;;;;;;5072683;28;20450;-63
2023/06/14 10:50:01;;;;;;;2.47;1.70;;;;;;;;;;5072407;28;20546;-63
2023/06/14 10:52:29;;;;;;;4.07;2.05;;;;;;;;;;5072338;28;20049;-62
2023/06/14 10:54:56;;;;;;;1.77;1.67;;;;;;;;;;5072372;28;20080;-63
2023/06/14 10:57:23;;;;;;;3.63;2.00;;;;;;;;;;5072280;28;20045;-63
2023/06/14 10:59:50;;;;;;;2.03;1.73;;;;;;;;;;5072404;28;20052;-62
2023/06/14 11:02:19;;;;;;;4.45;2.13;;;;;;;;;;5072156;28;20053;-63
2023/06/14 11:04:53;;;;;;;3.22;1.80;;;;;;;;;;5072293;28;20557;-63
2023/06/14 11:07:33;;;;;;;3.40;1.90;;;;;;;;;;5072321;28;20048;-63
2023/06/14 11:10:12;;;;;;;3.58;2.03;;;;;;;;;;5072558;28;20542;-63
2023/06/14 11:12:39;;;;;;;2.28;1.90;;;;;;;;;;5072135;28;20040;-63
2023/06/14 11:15:06;;;;;;;3.80;1.88;;;;;;;;;;5072316;28;20052;-63
2023/06/14 11:17:32;;;;;;;2.88;1.77;;;;;;;;;;5072140;28;20052;-63
2023/06/14 11:20:15;;;;;;;1.77;1.60;;;;;;;;;;5071962;28;20045;-63
2023/06/14 11:22:44;;;;;;;3.13;1.63;;;;;;;;;;5071931;28;20124;-63
2023/06/14 11:25:14;;;;;;;2.13;1.92;;;;;;;;;;5072173;28;20055;-63
2023/06/14 11:27:42;;;;;;;2.80;1.92;;;;;;;;;;5072037;28;20087;-63
2023/06/14 11:30:09;;;;;;;2.10;1.90;;;;;;;;;;5071826;28;20454;-63
2023/06/14 11:32:39;;;;;;;3.45;2.28;;;;;;;;;;5071954;28;20048;-63
2023/06/14 11:35:06;;;;;;;3.83;1.95;;;;;;;;;;5071758;28;20096;-63
2023/06/14 11:37:33;;;;;;;2.90;2.00;;;;;;;;;;5071128;28;20059;-63
2023/06/14 11:40:00;;;;;;;2.90;2.33;;;;;;;;;;5071612;28;20086;-63
2023/06/14 11:42:26;;;;;;;2.45;1.98;;;;;;;;;;5071936;28;20048;-63
2023/06/14 11:44:53;;;;;;;2.47;1.85;;;;;;;;;;5071730;28;20056;-63
2023/06/14 11:47:38;;;;;;;2.20;2.05;;;;;;;;;;5071924;28;20102;-63
2023/06/14 11:50:06;;;;;;;2.35;2.15;;;;;;;;;;5071913;28;20052;-63
2023/06/14 11:52:32;;;;;;;4.80;2.42;;;;;;;;;;5071748;28;20447;-64
2023/06/14 11:54:59;;;;;;;2.53;2.30;;;;;;;;;;5071776;28;20448;-62
2023/06/14 11:57:25;;;;;;;2.35;2.13;;;;;;;;;;5071736;28;20044;-64
2023/06/14 11:59:52;;;;;;;3.67;2.45;;;;;;;;;;5071565;28;20484;-63
2023/06/14 12:02:19;;;;;;;3.38;2.30;;;;;;;;;;5071282;28;20052;-63
2023/06/14 12:04:50;;;;;;;2.40;2.10;;;;;;;;;;5071381;28;20539;-63
2023/06/14 12:07:17;;;;;;;1.95;1.85;;;;;;;;;;5071576;28;20055;-63
2023/06/14 12:09:56;;;;;;;2.63;2.20;;;;;;;;;;5071614;28;20053;-63
2023/06/14 12:12:25;;;;;;;3.03;2.33;;;;;;;;;;5071293;28;20098;-63
2023/06/14 12:14:52;;;;;;;2.47;2.28;;;;;;;;;;5071360;28;20060;-63
2023/06/14 12:17:18;;;;;;;2.40;2.20;;;;;;;;;;5071291;28;20114;-63
2023/06/14 12:19:46;;;;;;;2.20;2.10;;;;;;;;;;5071469;28;20048;-63
2023/06/14 12:22:13;;;;;;;2.55;1.92;;;;;;;;;;5071508;28;20048;-63
2023/06/14 12:24:42;;;;;;;2.65;2.35;;;;;;;;;;5071513;28;20052;-63
2023/06/14 12:27:11;;;;;;;2.50;2.30;;;;;;;;;;5071576;28;20056;-63
2023/06/14 12:29:38;;;;;;;3.00;2.70;;;;;;;;;;5071175;28;20048;-64
2023/06/14 12:32:04;;;;;;;2.85;2.65;;;;;;;;;;5071069;28;20048;-63
2023/06/14 12:34:31;;;;;;;2.60;2.40;;;;;;;;;;5071128;28;20061;-63
2023/06/14 12:36:57;;;;;;;2.58;2.38;;;;;;;;;;5071728;28;20044;-63
2023/06/14 12:39:24;;;;;;;2.75;2.10;;;;;;;;;;5071069;28;20057;-63
2023/06/14 12:41:50;;;;;;;3.28;2.53;;;;;;;;;;5071110;28;20484;-63
2023/06/14 12:44:17;;;;;;;2.58;2.38;;;;;;;;;;5071050;28;20049;-63
2023/06/14 12:46:44;;;;;;;3.45;2.72;;;;;;;;;;5070861;28;20509;-63
2023/06/14 12:49:11;;;;;;;3.00;2.50;;;;;;;;;;5073277;28;20052;-64
2023/06/14 12:51:38;;;;;;;2.78;2.58;;;;;;;;;;5074771;28;20045;-63
2023/06/14 12:54:05;;;;;;;2.70;2.50;;;;;;;;;;5074863;28;20048;-63
2023/06/14 12:56:31;;;;;;;2.72;2.50;;;;;;;;;;5075144;28;20047;-63
2023/06/14 12:58:58;;;;;;;2.72;2.30;;;;;;;;;;5074790;28;20093;-63
2023/06/14 13:01:25;;;;;;;2.95;2.22;;;;;;;;;;5074529;28;20496;-64
2023/06/14 13:03:53;;;;;;;3.92;2.40;;;;;;;;;;5074513;28;20389;-63
2023/06/14 13:06:21;;;;;;;2.50;2.30;;;;;;;;;;5074702;28;20086;-63
2023/06/14 13:08:47;;;;;;;2.97;2.42;;;;;;;;;;5074572;28;20048;-63
2023/06/14 13:11:14;;;;;;;5.00;2.53;;;;;;;;;;5074334;28;20052;-63
2023/06/14 13:13:40;;;;;;;4.10;2.50;;;;;;;;;;5074392;28;20049;-63
2023/06/14 13:16:07;;;;;;;2.50;2.30;;;;;;;;;;5074345;28;20492;-63
2023/06/14 13:18:34;;;;;;;4.57;2.67;;;;;;;;;;5074464;28;20049;-63
2023/06/14 13:21:01;;;;;;;3.28;2.10;;;;;;;;;;5074374;28;20052;-61
2023/06/14 13:23:27;;;;;;;4.18;2.72;;;;;;;;;;5074296;28;20048;-61
2023/06/14 13:25:54;;;;;;;3.60;2.58;;;;;;;;;;5074133;28;20056;-61
2023/06/14 13:28:20;;;;;;;2.83;2.63;;;;;;;;;;5074059;28;20052;-60
2023/06/14 13:30:47;;;;;;;3.53;2.10;;;;;;;;;;5073939;28;20052;-61
2023/06/14 13:33:14;;;;;;;5.05;2.55;;;;;;;;;;5073955;28;20048;-61
2023/06/14 13:35:40;;;;;;;2.85;2.58;;;;;;;;;;5074240;28;20059;-60
2023/06/14 13:38:08;;;;;;;5.25;2.47;;;;;;;;;;5073989;28;20052;-61
2023/06/14 13:40:35;;;;;;;2.78;2.45;;;;;;;;;;5074249;28;20052;-60
2023/06/14 13:43:01;;;;;;;2.70;2.50;;;;;;;;;;5055955;28;20500;-61
2023/06/14 13:45:27;;;;;;;2.78;2.58;;;;;;;;;;5073689;28;20496;-60
2023/06/14 13:47:54;;;;;;;5.25;2.40;;;;;;;;;;5073750;28;20052;-61
2023/06/14 13:50:21;;;;;;;3.85;2.42;;;;;;;;;;5073925;28;20053;-61
2023/06/14 13:52:47;;;;;;;3.90;2.50;;;;;;;;;;5073678;28;20419;-61
2023/06/14 13:55:14;;;;;;;3.33;2.40;;;;;;;;;;5073949;28;20513;-61
2023/06/14 13:57:40;;;;;;;3.08;2.40;;;;;;;;;;5073881;28;20044;-61
2023/06/14 14:00:08;;;;;;;7.28;6.68;;;;;;;;;;5072914;28;20048;-61
2023/06/14 14:02:35;;;;;;;3.45;2.50;;;;;;;;;;5073359;28;20131;-61
2023/06/14 14:05:01;;;;;;;2.28;2.08;;;;;;;;;;5073996;28;20052;-61
2023/06/14 14:07:29;;;;;;;3.72;2.42;;;;;;;;;;5073463;28;20045;-61
2023/06/14 14:09:57;;;;;;;3.00;2.70;;;;;;;;;;5073297;28;20052;-61
2023/06/14 14:12:24;;;;;;;3.75;2.60;;;;;;;;;;5073061;28;20095;-60
2023/06/14 14:14:51;;;;;;;2.55;2.35;;;;;;;;;;5073178;28;20045;-61
2023/06/14 14:17:18;;;;;;;4.20;2.70;;;;;;;;;;5073060;28;20102;-61
2023/06/14 14:19:44;;;;;;;4.63;2.70;;;;;;;;;;5073694;28;20040;-60
2023/06/14 14:22:11;;;;;;;2.97;2.67;;;;;;;;;;5073303;28;20052;-61
2023/06/14 14:24:37;;;;;;;4.55;2.70;;;;;;;;;;5073104;28;20053;-60
2023/06/14 14:27:04;;;;;;;3.15;2.53;;;;;;;;;;5072991;28;20048;-61
2023/06/14 14:29:30;;;;;;;3.97;2.40;;;;;;;;;;5073073;28;20052;-61
2023/06/14 14:31:57;;;;;;;4.75;2.97;;;;;;;;;;5073090;28;20115;-61
2023/06/14 14:34:24;;;;;;;3.00;2.80;;;;;;;;;;5072768;28;20048;-61
2023/06/14 14:36:51;;;;;;;3.00;2.70;;;;;;;;;;5072813;28;20508;-61